createdAt,value
2022-11-05T00:01:33.020Z,99665.38
2022-11-05T00:04:17.910Z,99659.44
2022-11-05T00:07:02.702Z,99664.19
2022-11-05T00:09:34.668Z,99664.56
2022-11-05T00:12:19.544Z,99664.09
2022-11-05T00:15:04.798Z,99675.09
2022-11-05T00:17:33.229Z,99679.94
2022-11-05T00:20:01.165Z,99683.94
2022-11-05T00:22:46.276Z,99678.03
2022-11-05T00:25:17.793Z,99690.81
2022-11-05T00:27:45.526Z,99690.22
2022-11-05T00:30:17.492Z,99700.84
2022-11-05T00:32:45.060Z,99700.63
2022-11-05T00:35:12.582Z,99704.00
2022-11-05T00:37:42.329Z,99700.72
2022-11-05T00:40:11.946Z,99702.78
2022-11-05T00:42:56.885Z,99697.84
2022-11-05T00:45:24.541Z,99700.97
2022-11-05T00:48:09.650Z,99703.13
2022-11-05T00:50:37.226Z,99707.13
2022-11-05T00:53:04.779Z,99711.09
2022-11-05T00:55:33.515Z,99707.84
2022-11-05T00:58:01.516Z,99708.19
2022-11-05T01:00:29.063Z,99706.88
2022-11-05T01:02:56.757Z,99710.59
2022-11-05T01:05:24.808Z,99717.97
2022-11-05T01:07:54.435Z,99721.81
2022-11-05T01:10:22.040Z,99718.66
2022-11-05T01:12:49.596Z,99727.81
2022-11-05T01:15:17.210Z,99730.72
2022-11-05T01:17:44.828Z,99733.59
2022-11-05T01:20:12.732Z,99735.53
2022-11-05T01:22:40.294Z,99734.91
2022-11-05T01:25:08.649Z,99740.66
2022-11-05T01:27:36.235Z,99737.75
2022-11-05T01:30:03.806Z,99750.63
2022-11-05T01:32:33.095Z,99751.31
2022-11-05T01:35:00.648Z,99750.81
2022-11-05T01:37:28.214Z,99751.25
2022-11-05T01:39:55.804Z,99756.66
2022-11-05T01:42:23.786Z,99756.81
2022-11-05T01:44:51.342Z,99750.53
2022-11-05T01:47:18.938Z,99745.22
2022-11-05T01:49:46.461Z,99761.13
2022-11-05T01:52:13.997Z,99760.53
2022-11-05T01:54:41.898Z,99767.84
2022-11-05T01:57:10.023Z,99770.13
2022-11-05T01:59:37.533Z,99777.41
2022-11-05T02:02:05.290Z,99779.53
2022-11-05T02:04:35.670Z,99785.06
2022-11-05T02:07:03.590Z,99786.88
2022-11-05T02:09:33.459Z,99778.91
2022-11-05T02:12:00.997Z,99787.50
2022-11-05T02:14:28.501Z,99774.00
2022-11-05T02:16:56.076Z,99779.22
2022-11-05T02:19:24.012Z,99776.56
2022-11-05T02:21:52.835Z,99774.75
2022-11-05T02:24:20.408Z,99785.16
2022-11-05T02:26:48.432Z,99780.50
2022-11-05T02:29:15.967Z,99776.34
2022-11-05T02:31:43.536Z,99785.63
2022-11-05T02:34:12.963Z,99778.41
2022-11-05T02:36:40.486Z,99782.03
2022-11-05T02:39:08.049Z,99788.50
2022-11-05T02:41:35.584Z,99793.31
2022-11-05T02:44:03.128Z,99795.44
2022-11-05T02:46:30.763Z,99801.59
2022-11-05T02:48:58.639Z,99799.69
2022-11-05T02:51:26.151Z,99794.28
2022-11-05T02:53:53.719Z,99793.31
2022-11-05T02:56:21.665Z,99795.00
2022-11-05T02:58:50.440Z,99795.84
2022-11-05T03:01:18.133Z,99799.97
2022-11-05T03:04:02.486Z,99800.69
2022-11-05T03:06:30.052Z,99794.09
2022-11-05T03:08:57.552Z,99804.16
2022-11-05T03:11:25.096Z,99806.22
2022-11-05T03:13:52.703Z,99797.97
2022-11-05T03:16:20.321Z,99816.06
2022-11-05T03:18:49.076Z,99798.22
2022-11-05T03:21:17.193Z,99807.88
2022-11-05T03:23:44.736Z,99808.63
2022-11-05T03:26:12.240Z,99810.41
2022-11-05T03:28:39.831Z,99808.63
2022-11-05T03:31:08.334Z,99812.00
2022-11-05T03:33:37.872Z,99812.75
2022-11-05T03:36:05.457Z,99817.09
2022-11-05T03:38:33.004Z,99818.88
2022-11-05T03:41:00.569Z,99821.78
2022-11-05T03:43:28.547Z,99822.13
2022-11-05T03:45:57.240Z,99820.88
2022-11-05T03:48:24.839Z,99829.38
2022-11-05T03:50:52.459Z,99828.03
2022-11-05T03:53:20.919Z,99831.13
2022-11-05T03:55:48.864Z,99835.09
2022-11-05T03:58:18.196Z,99833.72
2022-11-05T04:00:45.723Z,99834.16
2022-11-05T04:03:13.374Z,99835.31
2022-11-05T04:05:41.136Z,99830.25
2022-11-05T04:08:26.562Z,99828.72
2022-11-05T04:11:11.570Z,99836.28
2022-11-05T04:13:43.569Z,99843.63
2022-11-05T04:16:37.279Z,99851.81
2022-11-05T04:19:05.177Z,99852.84
2022-11-05T04:21:50.363Z,99844.28
2022-11-05T04:24:17.914Z,99843.63
2022-11-05T04:26:45.483Z,99839.50
2022-11-05T04:29:30.835Z,99837.94
2022-11-05T04:31:58.376Z,99854.03
2022-11-05T04:34:26.372Z,99844.38
2022-11-05T04:36:53.943Z,99847.91
2022-11-05T04:39:21.471Z,99846.31
2022-11-05T04:41:49.469Z,99857.00
2022-11-05T04:44:17.068Z,99853.53
2022-11-05T04:46:46.742Z,99850.66
2022-11-05T04:49:14.242Z,99847.91
2022-11-05T04:51:41.819Z,99848.72
2022-11-05T04:54:09.751Z,99849.78
2022-11-05T04:56:37.767Z,99848.97
2022-11-05T04:59:05.338Z,99849.16
2022-11-05T05:01:33.034Z,99850.00
2022-11-05T05:04:00.656Z,99858.59
2022-11-05T05:06:28.571Z,99865.59
2022-11-05T05:08:56.102Z,99858.38
2022-11-05T05:11:23.645Z,99856.59
2022-11-05T05:13:51.277Z,99866.31
2022-11-05T05:16:18.907Z,99859.34
2022-11-05T05:18:47.197Z,99862.06
2022-11-05T05:21:32.442Z,99872.06
2022-11-05T05:23:59.974Z,99865.19
2022-11-05T05:26:27.499Z,99875.03
2022-11-05T05:28:55.084Z,99877.03
2022-11-05T05:31:22.611Z,99869.31
2022-11-05T05:33:50.129Z,99876.63
2022-11-05T05:36:18.639Z,99882.00
2022-11-05T05:38:46.182Z,99884.88
2022-11-05T05:41:14.130Z,99880.72
2022-11-05T05:43:41.696Z,99892.41
2022-11-05T05:46:09.230Z,99893.47
2022-11-05T05:48:37.353Z,99897.16
2022-11-05T05:51:04.975Z,99897.25
2022-11-05T05:53:32.914Z,99898.31
2022-11-05T05:56:00.417Z,99896.75
2022-11-05T05:58:28.164Z,99898.75
2022-11-05T06:00:56.086Z,99905.94
2022-11-05T06:03:23.620Z,99906.88
2022-11-05T06:05:51.523Z,99909.66
2022-11-05T06:08:19.035Z,99910.56
2022-11-05T06:10:46.653Z,99914.19
2022-11-05T06:13:14.289Z,99919.69
2022-11-05T06:15:41.853Z,99919.69
2022-11-05T06:18:10.193Z,99915.34
2022-11-05T06:20:37.752Z,99915.34
2022-11-05T06:23:05.613Z,99911.75
2022-11-05T06:25:36.002Z,99914.50
2022-11-05T06:28:07.585Z,99926.91
2022-11-05T06:30:35.541Z,99926.13
2022-11-05T06:33:03.048Z,99925.19
2022-11-05T06:35:30.648Z,99938.53
2022-11-05T06:37:59.254Z,99932.38
2022-11-05T06:40:27.056Z,99934.19
2022-11-05T06:42:55.035Z,99935.25
2022-11-05T06:45:22.986Z,99944.16
2022-11-05T06:47:50.631Z,99938.94
2022-11-05T06:50:18.219Z,99948.66
2022-11-05T06:52:45.765Z,99956.63
2022-11-05T06:55:13.456Z,99961.16
2022-11-05T06:57:41.033Z,99954.09
2022-11-05T07:00:08.735Z,99966.47
2022-11-05T07:02:36.311Z,99967.31
2022-11-05T07:05:03.929Z,99969.84
2022-11-05T07:07:31.880Z,99974.09
2022-11-05T07:09:59.497Z,99979.22
2022-11-05T07:12:27.083Z,99976.56
2022-11-05T07:14:55.510Z,99981.75
2022-11-05T07:17:23.087Z,99972.66
2022-11-05T07:19:50.950Z,99982.22
2022-11-05T07:22:18.581Z,99985.50
2022-11-05T07:24:47.375Z,99980.00
2022-11-05T07:27:15.024Z,99983.19
2022-11-05T07:29:42.937Z,99989.78
2022-11-05T07:32:10.587Z,99993.94
2022-11-05T07:34:38.238Z,99998.09
2022-11-05T07:37:06.569Z,99997.69
2022-11-05T07:39:35.954Z,100000.84
2022-11-05T07:42:03.695Z,100005.00
2022-11-05T07:44:31.658Z,100002.88
2022-11-05T07:46:59.329Z,100002.47
2022-11-05T07:49:27.015Z,100006.63
2022-11-05T07:51:55.121Z,100006.22
2022-11-05T07:54:26.505Z,100008.44
2022-11-05T07:56:54.589Z,100006.75
2022-11-05T07:59:22.199Z,100004.25
2022-11-05T08:01:49.890Z,99996.59
2022-11-05T08:04:17.737Z,100008.50
2022-11-05T08:06:45.481Z,100013.38
2022-11-05T08:09:13.162Z,100008.56
2022-11-05T08:11:40.748Z,100019.84
2022-11-05T08:14:08.746Z,100017.81
2022-11-05T08:16:36.473Z,100023.56
2022-11-05T08:19:04.936Z,100019.28
2022-11-05T08:21:33.096Z,100015.97
2022-11-05T08:24:00.733Z,100017.34
2022-11-05T08:26:28.478Z,100021.38
2022-11-05T08:28:56.140Z,100023.56
2022-11-05T08:31:23.812Z,100020.59
2022-11-05T08:33:51.928Z,100026.53
2022-11-05T08:36:19.995Z,100032.38
2022-11-05T08:38:47.601Z,100027.69
2022-11-05T08:41:15.340Z,100030.09
2022-11-05T08:43:42.989Z,100029.81
2022-11-05T08:46:11.043Z,100038.25
2022-11-05T08:48:38.722Z,100041.66
2022-11-05T08:51:06.735Z,100046.75
2022-11-05T08:53:34.394Z,100045.69
2022-11-05T08:56:02.093Z,100045.47
2022-11-05T08:58:30.537Z,100052.34
2022-11-05T09:01:04.460Z,100045.47
2022-11-05T09:03:33.051Z,100048.97
2022-11-05T09:06:02.797Z,100049.69
2022-11-05T09:08:30.855Z,100047.78
2022-11-05T09:10:58.750Z,100050.09
2022-11-05T09:13:26.957Z,100047.22
2022-11-05T09:15:55.104Z,100056.56
2022-11-05T09:18:22.842Z,100057.06
2022-11-05T09:20:50.573Z,100047.91
2022-11-05T09:23:18.220Z,100061.72
2022-11-05T09:25:46.047Z,100048.91
2022-11-05T09:28:16.740Z,100061.00
2022-11-05T09:30:45.823Z,100056.22
2022-11-05T09:33:14.165Z,100052.25
2022-11-05T09:35:41.944Z,100053.47
2022-11-05T09:38:09.595Z,100051.84
2022-11-05T09:40:37.368Z,100052.81
2022-11-05T09:43:05.920Z,100062.56
2022-11-05T09:45:34.004Z,100046.13
2022-11-05T09:48:01.841Z,100059.25
2022-11-05T09:50:29.490Z,100053.28
2022-11-05T09:52:57.164Z,100048.34
2022-11-05T09:55:25.466Z,100047.78
2022-11-05T09:57:53.874Z,100050.66
2022-11-05T10:00:21.603Z,100057.19
2022-11-05T10:02:49.663Z,100048.91
2022-11-05T10:05:17.381Z,100050.47
2022-11-05T10:07:45.276Z,100048.94
2022-11-05T10:10:13.392Z,100049.56
2022-11-05T10:12:41.124Z,100050.22
2022-11-05T10:15:08.808Z,100044.94
2022-11-05T10:17:39.243Z,100055.19
2022-11-05T10:20:07.624Z,100052.84
2022-11-05T10:22:35.432Z,100055.69
2022-11-05T10:25:03.616Z,100060.72
2022-11-05T10:27:31.365Z,100065.97
2022-11-05T10:29:59.138Z,100066.25
2022-11-05T10:32:26.962Z,100060.28
2022-11-05T10:34:55.079Z,100049.28
2022-11-05T10:37:22.716Z,100054.25
2022-11-05T10:39:50.431Z,100054.22
2022-11-05T10:42:18.167Z,100056.09
2022-11-05T10:44:47.847Z,100053.56
2022-11-05T10:47:16.546Z,100055.81
2022-11-05T10:49:44.267Z,100061.47
2022-11-05T10:52:11.909Z,100060.41
2022-11-05T10:54:39.585Z,100072.44
2022-11-05T10:57:09.516Z,100069.06
2022-11-05T10:59:37.565Z,100070.03
2022-11-05T11:02:05.506Z,100073.38
2022-11-05T11:04:37.692Z,100075.72
2022-11-05T11:07:05.849Z,100070.19
2022-11-05T11:09:33.655Z,100067.50
2022-11-05T11:12:01.916Z,100077.41
2022-11-05T11:14:29.665Z,100077.13
2022-11-05T11:16:58.641Z,100071.25
2022-11-05T11:19:26.324Z,100074.78
2022-11-05T11:21:54.979Z,100071.28
2022-11-05T11:24:23.847Z,100076.91
2022-11-05T11:26:51.552Z,100074.38
2022-11-05T11:29:19.670Z,100075.50
2022-11-05T11:31:47.467Z,100070.16
2022-11-05T11:34:15.281Z,100076.50
2022-11-05T11:36:43.311Z,100080.97
2022-11-05T11:39:11.199Z,100073.78
2022-11-05T11:41:38.956Z,100080.25
2022-11-05T11:44:06.684Z,100081.88
2022-11-05T11:46:35.733Z,100078.72
2022-11-05T11:49:03.873Z,100081.81
2022-11-05T11:51:31.952Z,100082.78
2022-11-05T11:53:59.609Z,100077.84
2022-11-05T11:56:27.425Z,100086.25
2022-11-05T11:58:56.876Z,100082.41
2022-11-05T12:01:25.008Z,100080.56
2022-11-05T12:03:52.846Z,100082.88
2022-11-05T12:06:20.618Z,100080.53
2022-11-05T12:08:54.181Z,100087.84
2022-11-05T12:11:28.543Z,100082.69
2022-11-05T12:13:56.685Z,100077.63
2022-11-05T12:16:24.385Z,100073.78
2022-11-05T12:18:52.140Z,100071.13
2022-11-05T12:21:40.713Z,100071.75
2022-11-05T12:24:08.769Z,100064.78
2022-11-05T12:26:36.644Z,100067.28
2022-11-05T12:29:18.490Z,100061.94
2022-11-05T12:31:47.232Z,100061.81
2022-11-05T12:34:15.240Z,100063.09
2022-11-05T12:36:43.059Z,100062.50
2022-11-05T12:39:10.804Z,100065.19
2022-11-05T12:41:38.589Z,100063.88
2022-11-05T12:44:06.385Z,100061.91
2022-11-05T12:46:36.020Z,100061.34
2022-11-05T12:49:03.823Z,100057.97
2022-11-05T12:51:31.629Z,100056.97
2022-11-05T12:53:59.920Z,100061.91
2022-11-05T12:56:27.551Z,100050.50
2022-11-05T12:58:58.357Z,100056.81
2022-11-05T13:01:26.308Z,100052.66
2022-11-05T13:03:54.215Z,100060.94
2022-11-05T13:06:22.001Z,100052.63
2022-11-05T13:08:49.887Z,100052.28
2022-11-05T13:11:17.839Z,100045.53
2022-11-05T13:13:45.629Z,100053.78
2022-11-05T13:16:13.807Z,100044.22
2022-11-05T13:18:41.513Z,100039.00
2022-11-05T13:21:09.363Z,100034.19
2022-11-05T13:23:37.144Z,100036.81
2022-11-05T13:26:05.147Z,100033.38
2022-11-05T13:28:32.821Z,100040.09
2022-11-05T13:31:01.713Z,100037.53
2022-11-05T13:33:29.527Z,100036.72
2022-11-05T13:36:19.861Z,100034.16
2022-11-05T13:39:02.774Z,100029.94
2022-11-05T13:41:30.603Z,100020.94
2022-11-05T13:43:58.457Z,100036.13
2022-11-05T13:46:27.368Z,100026.28
2022-11-05T13:48:55.148Z,100027.13
2022-11-05T13:51:23.056Z,100037.13
2022-11-05T13:53:50.779Z,100034.56
2022-11-05T13:56:18.576Z,100031.03
2022-11-05T13:58:47.808Z,100030.19
2022-11-05T14:01:15.629Z,100031.31
2022-11-05T14:03:43.585Z,100022.13
2022-11-05T14:06:11.434Z,100019.13
2022-11-05T14:08:39.260Z,100031.16
2022-11-05T14:11:07.994Z,100032.53
2022-11-05T14:13:35.837Z,100032.53
2022-11-05T14:16:03.646Z,100032.13
2022-11-05T14:18:31.766Z,100014.91
2022-11-05T14:20:59.656Z,100017.06
2022-11-05T14:23:27.903Z,100014.69
2022-11-05T14:25:55.827Z,100018.94
2022-11-05T14:28:23.687Z,100012.16
2022-11-05T14:30:51.530Z,100010.97
2022-11-05T14:33:19.418Z,100006.81
2022-11-05T14:35:48.813Z,100011.66
2022-11-05T14:38:16.622Z,100012.66
2022-11-05T14:40:44.462Z,100004.94
2022-11-05T14:43:12.522Z,100010.19
2022-11-05T14:45:40.702Z,100008.25
2022-11-05T14:48:09.729Z,100017.88
2022-11-05T14:50:37.617Z,100015.59
2022-11-05T14:53:05.453Z,100022.00
2022-11-05T14:55:33.151Z,100020.56
2022-11-05T14:58:00.892Z,100004.94
2022-11-05T15:00:29.784Z,99995.38
2022-11-05T15:02:57.958Z,99994.91
2022-11-05T15:05:25.801Z,99984.47
2022-11-05T15:07:53.664Z,99983.88
2022-11-05T15:10:21.586Z,99987.63
2022-11-05T15:12:49.844Z,99984.38
2022-11-05T15:15:21.690Z,99988.28
2022-11-05T15:17:51.702Z,99985.00
2022-11-05T15:20:19.691Z,99988.88
2022-11-05T15:22:47.519Z,99985.59
2022-11-05T15:25:19.389Z,99992.06
2022-11-05T15:27:47.176Z,99994.84
2022-11-05T15:30:14.959Z,99996.16
2022-11-05T15:32:42.980Z,100001.72
2022-11-05T15:35:10.770Z,100007.19
2022-11-05T15:37:40.737Z,100010.94
2022-11-05T15:40:08.943Z,100010.34
2022-11-05T15:42:38.474Z,100005.25
2022-11-05T15:45:06.495Z,99998.38
2022-11-05T15:47:34.831Z,100001.25
2022-11-05T15:50:08.628Z,100003.19
2022-11-05T15:52:42.604Z,100007.66
2022-11-05T15:55:10.450Z,99999.81
2022-11-05T15:57:40.406Z,100003.56
2022-11-05T16:00:08.630Z,100016.97
2022-11-05T16:02:36.504Z,100014.56
2022-11-05T16:05:06.814Z,100015.41
2022-11-05T16:07:34.601Z,100012.03
2022-11-05T16:10:02.414Z,100009.47
2022-11-05T16:12:30.389Z,100012.38
2022-11-05T16:14:58.707Z,100010.81
2022-11-05T16:17:26.571Z,100017.09
2022-11-05T16:19:54.378Z,100015.41
2022-11-05T16:22:22.288Z,100012.84
2022-11-05T16:24:50.756Z,100003.91
2022-11-05T16:27:19.832Z,100006.56
2022-11-05T16:29:48.347Z,100006.56
2022-11-05T16:32:16.267Z,100007.41
2022-11-05T16:34:44.463Z,100014.44
2022-11-05T16:37:15.158Z,100008.25
2022-11-05T16:39:42.989Z,100005.59
2022-11-05T16:42:10.815Z,100001.22
2022-11-05T16:44:38.676Z,100007.53
2022-11-05T16:47:06.477Z,100005.84
2022-11-05T16:49:36.192Z,100005.94
2022-11-05T16:52:04.661Z,100003.44
2022-11-05T16:54:32.440Z,100007.03
2022-11-05T16:57:00.287Z,99999.19
2022-11-05T16:59:28.066Z,100004.63
2022-11-05T17:01:58.349Z,100005.69
2022-11-05T17:04:26.231Z,100004.13
2022-11-05T17:06:54.086Z,100003.38
2022-11-05T17:09:21.840Z,100017.66
2022-11-05T17:11:49.759Z,100015.97
2022-11-05T17:14:18.294Z,100008.09
2022-11-05T17:16:46.190Z,100000.38
2022-11-05T17:19:14.049Z,100003.13
2022-11-05T17:21:42.049Z,100005.06
2022-11-05T17:24:09.859Z,100010.50
2022-11-05T17:26:40.439Z,100005.28
2022-11-05T17:29:08.331Z,100018.59
2022-11-05T17:31:36.230Z,100014.97
2022-11-05T17:34:04.024Z,100022.13
2022-11-05T17:36:32.396Z,100023.09
2022-11-05T17:39:00.633Z,100017.88
2022-11-05T17:41:28.417Z,100017.88
2022-11-05T17:43:56.396Z,100003.59
2022-11-05T17:46:24.317Z,100008.91
2022-11-05T17:48:52.172Z,100000.94
2022-11-05T17:51:20.524Z,100005.28
2022-11-05T17:53:49.227Z,100006.16
2022-11-05T17:56:23.588Z,100017.63
2022-11-05T17:58:56.988Z,100004.22
2022-11-05T18:01:25.060Z,100010.41
2022-11-05T18:03:53.140Z,99997.09
2022-11-05T18:06:21.040Z,100003.13
2022-11-05T18:08:48.888Z,100000.47
2022-11-05T18:11:16.825Z,100006.66
2022-11-05T18:13:45.143Z,100007.50
2022-11-05T18:16:12.935Z,99999.50
2022-11-05T18:18:41.152Z,100001.34
2022-11-05T18:21:09.141Z,100004.00
2022-11-05T18:23:37.001Z,100000.38
2022-11-05T18:26:06.823Z,100018.13
2022-11-05T18:28:34.770Z,100011.00
2022-11-05T18:31:02.697Z,100034.81
2022-11-05T18:33:30.581Z,100028.78
2022-11-05T18:35:58.578Z,100026.13
2022-11-05T18:38:28.386Z,100032.50
2022-11-05T18:40:56.327Z,100027.34
2022-11-05T18:43:24.283Z,100032.66
2022-11-05T18:45:52.078Z,100028.28
2022-11-05T18:48:19.962Z,100028.41
2022-11-05T18:50:49.614Z,100024.88
2022-11-05T18:53:17.472Z,100019.56
2022-11-05T18:55:45.820Z,100016.19
2022-11-05T18:58:14.227Z,100015.47
2022-11-05T19:00:42.272Z,100015.56
2022-11-05T19:03:11.106Z,100022.69
2022-11-05T19:05:38.897Z,100014.69
2022-11-05T19:08:06.806Z,100018.31
2022-11-05T19:10:34.594Z,100020.88
2022-11-05T19:13:02.414Z,100022.59
2022-11-05T19:15:32.562Z,100017.25
2022-11-05T19:18:00.338Z,100017.25
2022-11-05T19:20:29.657Z,100018.13
2022-11-05T19:22:59.181Z,100020.78
2022-11-05T19:25:27.335Z,100025.13
2022-11-05T19:27:59.523Z,100021.59
2022-11-05T19:30:27.428Z,100017.16
2022-11-05T19:32:56.031Z,100026.81
2022-11-05T19:35:23.847Z,100021.59
2022-11-05T19:37:53.631Z,100028.75
2022-11-05T19:40:25.063Z,100028.63
2022-11-05T19:42:52.907Z,100031.28
2022-11-05T19:45:43.410Z,100041.09
2022-11-05T19:48:08.360Z,100032.25
2022-11-05T19:50:36.231Z,100037.47
2022-11-05T19:53:04.127Z,100033.94
2022-11-05T19:55:31.999Z,100035.78
2022-11-05T19:57:59.709Z,100034.09
2022-11-05T20:00:27.475Z,100033.22
2022-11-05T20:02:55.469Z,100036.84
2022-11-05T20:05:23.323Z,100031.53
2022-11-05T20:07:53.080Z,100023.63
2022-11-05T20:10:21.279Z,100023.63
2022-11-05T20:12:49.103Z,100010.47
2022-11-05T20:15:19.768Z,100015.78
2022-11-05T20:17:47.693Z,100027.25
2022-11-05T20:20:15.504Z,100022.91
2022-11-05T20:22:43.621Z,100029.09
2022-11-05T20:25:11.431Z,100037.88
2022-11-05T20:27:44.524Z,100023.63
2022-11-05T20:30:12.418Z,100010.47
2022-11-05T20:32:40.111Z,100002.59
2022-11-05T20:35:07.859Z,100009.84
2022-11-05T20:37:35.703Z,100017.94
2022-11-05T20:40:06.005Z,100012.72
2022-11-05T20:42:33.771Z,100019.00
2022-11-05T20:45:01.591Z,100021.78
2022-11-05T20:47:29.443Z,100022.53
2022-11-05T20:49:58.735Z,100033.03
2022-11-05T20:52:30.127Z,100034.63
2022-11-05T20:54:58.107Z,100032.81
2022-11-05T20:57:25.793Z,100034.50
2022-11-05T20:59:53.615Z,100027.25
2022-11-05T21:02:21.614Z,100012.97
2022-11-05T21:04:50.106Z,100005.91
2022-11-05T21:07:18.237Z,100008.56
2022-11-05T21:09:46.094Z,99991.69
2022-11-05T21:12:14.168Z,99991.69
2022-11-05T21:14:42.028Z,100001.50
2022-11-05T21:17:11.813Z,100004.16
2022-11-05T21:19:39.530Z,100002.34
2022-11-05T21:22:07.470Z,100006.81
2022-11-05T21:24:35.403Z,100020.97
2022-11-05T21:27:03.217Z,100025.25
2022-11-05T21:29:32.479Z,100031.41
2022-11-05T21:32:00.305Z,100039.41
2022-11-05T21:34:28.392Z,100043.75
2022-11-05T21:36:56.242Z,100046.41
2022-11-05T21:39:23.918Z,100047.38
2022-11-05T21:41:54.214Z,100037.72
2022-11-05T21:44:22.104Z,100030.78
2022-11-05T21:46:50.149Z,100032.69
2022-11-05T21:49:17.983Z,100030.16
2022-11-05T21:52:03.954Z,100023.25
2022-11-05T21:54:49.353Z,100023.59
2022-11-05T21:57:34.710Z,100011.47
2022-11-05T22:00:03.843Z,100013.78
2022-11-05T22:02:32.544Z,100004.44
2022-11-05T22:05:00.481Z,99997.66
2022-11-05T22:07:28.277Z,99981.19
2022-11-05T22:09:56.230Z,99978.66
2022-11-05T22:12:24.935Z,99965.47
2022-11-05T22:14:53.666Z,99970.06
2022-11-05T22:17:21.499Z,99964.97
2022-11-05T22:19:49.240Z,99966.06
2022-11-05T22:22:16.974Z,99955.66
2022-11-05T22:24:46.704Z,99966.53
2022-11-05T22:27:14.790Z,99963.97
2022-11-05T22:29:42.590Z,99966.63
2022-11-05T22:32:10.622Z,99963.13
2022-11-05T22:34:38.477Z,99961.41
2022-11-05T22:37:11.745Z,99957.19
2022-11-05T22:39:39.497Z,99963.69
2022-11-05T22:42:08.768Z,99968.28
2022-11-05T22:44:36.777Z,99961.38
2022-11-05T22:47:04.779Z,99959.78
2022-11-05T22:49:34.702Z,99961.72
2022-11-05T22:52:02.830Z,99961.09
2022-11-05T22:54:35.047Z,99961.22
2022-11-05T22:57:05.772Z,99958.78
2022-11-05T22:59:33.624Z,99958.06
2022-11-05T23:02:06.599Z,99956.25
2022-11-05T23:04:37.403Z,99950.19
2022-11-05T23:07:27.241Z,99945.00
2022-11-05T23:10:13.133Z,99955.84
2022-11-05T23:12:42.925Z,99963.94
2022-11-05T23:15:30.943Z,99955.22
2022-11-05T23:18:16.447Z,99951.00
2022-11-05T23:21:01.742Z,99939.50
2022-11-05T23:23:46.592Z,99940.47
2022-11-05T23:26:32.302Z,99936.97
2022-11-05T23:29:00.296Z,99932.63
2022-11-05T23:31:45.510Z,99938.88
2022-11-05T23:34:13.292Z,99948.56
2022-11-05T23:36:58.966Z,99944.19
2022-11-05T23:39:27.283Z,99941.78
2022-11-05T23:42:12.224Z,99956.97
2022-11-05T23:44:57.283Z,99946.47
2022-11-05T23:47:42.099Z,99943.19
2022-11-05T23:50:09.691Z,99945.09
2022-11-05T23:52:37.351Z,99936.28
2022-11-05T23:55:05.065Z,99945.22
2022-11-05T23:57:32.796Z,99936.63
